ULK178 ENBO-ENSB
Flight info
| Callsign | ULK178 |
|---|---|
| Flight time | 1h 50m |
| Altitude | 38000 |
| Route | MUGIF DCT ELRES DCT ADV |
| Aircraft | A319/M-SDE3FGHIRWY/LB1 |
Departure
| Time | 2026-04-24 22:09 |
|---|---|
| Airport | Bodø Airport (ENBO) |
Arrival
| Time | 2026-04-24 23:59 |
|---|---|
| Airport | Svalbard Airport, Longyear (ENSB) |
| Time | Latitude | Longitude | Altitude | Speed | Heading |
|---|---|---|---|---|---|
| 2026-04-24 21:34 | 67.27189 | 14.36937 | 43 ft | 0 kts | 296° |
| 2026-04-24 21:35 | 67.27179 | 14.36585 | 42 ft | 0 kts | 49° |
| 2026-04-24 22:02 | 67.27178 | 14.36583 | 44 ft | 1 kts | 49° |
| 2026-04-24 22:02 | 67.27168 | 14.36550 | 43 ft | 3 kts | 60° |
| 2026-04-24 22:02 | 67.27160 | 14.36508 | 41 ft | 3 kts | 77° |
| 2026-04-24 22:02 | 67.27158 | 14.36458 | 43 ft | 3 kts | 97° |
| 2026-04-24 22:03 | 67.27163 | 14.36411 | 43 ft | 3 kts | 127° |
| 2026-04-24 22:03 | 67.27174 | 14.36384 | 43 ft | 1 kts | 165° |
| 2026-04-24 22:03 | 67.27176 | 14.36382 | 43 ft | 0 kts | 168° |
| 2026-04-24 22:05 | 67.27173 | 14.36384 | 43 ft | 3 kts | 168° |
| 2026-04-24 22:05 | 67.27117 | 14.36415 | 43 ft | 13 kts | 168° |
| 2026-04-24 22:05 | 67.27036 | 14.36282 | 41 ft | 19 kts | 253° |
| 2026-04-24 22:06 | 67.27006 | 14.35881 | 41 ft | 26 kts | 259° |
| 2026-04-24 22:06 | 67.26963 | 14.35362 | 39 ft | 33 kts | 258° |
| 2026-04-24 22:06 | 67.26916 | 14.34785 | 37 ft | 30 kts | 257° |
| 2026-04-24 22:06 | 67.26877 | 14.34325 | 35 ft | 25 kts | 257° |
| 2026-04-24 22:07 | 67.26840 | 14.33897 | 32 ft | 25 kts | 258° |
| 2026-04-24 22:07 | 67.26812 | 14.33554 | 32 ft | 15 kts | 258° |
| 2026-04-24 22:07 | 67.26758 | 14.33386 | 32 ft | 11 kts | 172° |
| 2026-04-24 22:07 | 67.26745 | 14.33390 | 32 ft | 3 kts | 171° |
| 2026-04-24 22:08 | 67.26703 | 14.33408 | 32 ft | 9 kts | 170° |
| 2026-04-24 22:08 | 67.26667 | 14.33516 | 32 ft | 4 kts | 77° |
| 2026-04-24 22:08 | 67.26673 | 14.33576 | 31 ft | 12 kts | 76° |
| 2026-04-24 22:08 | 67.26755 | 14.34532 | 34 ft | 96 kts | 77° |
| 2026-04-24 22:09 | 67.26943 | 14.36795 | 138 ft | 147 kts | 76° |
| 2026-04-24 22:09 | 67.27145 | 14.39345 | 810 ft | 145 kts | 73° |
| 2026-04-24 22:09 | 67.27249 | 14.41968 | 1479 ft | 150 kts | 89° |
| 2026-04-24 22:09 | 67.27277 | 14.44691 | 2008 ft | 158 kts | 68° |
| 2026-04-24 22:10 | 67.27953 | 14.47102 | 2353 ft | 178 kts | 39° |
| 2026-04-24 22:10 | 67.28946 | 14.49381 | 2725 ft | 203 kts | 40° |
| 2026-04-24 22:10 | 67.30034 | 14.51925 | 3419 ft | 215 kts | 40° |
| 2026-04-24 22:10 | 67.31148 | 14.54563 | 4326 ft | 218 kts | 41° |
| 2026-04-24 22:11 | 67.32272 | 14.57246 | 5256 ft | 221 kts | 41° |
| 2026-04-24 22:11 | 67.33405 | 14.59962 | 6177 ft | 223 kts | 41° |
| 2026-04-24 22:11 | 67.34559 | 14.62724 | 6791 ft | 228 kts | 41° |
| 2026-04-24 22:11 | 67.35728 | 14.65522 | 7623 ft | 229 kts | 41° |
| 2026-04-24 22:12 | 67.36904 | 14.68338 | 8508 ft | 232 kts | 40° |
| 2026-04-24 22:12 | 67.38242 | 14.70696 | 9335 ft | 235 kts | 22° |
| 2026-04-24 22:12 | 67.39838 | 14.71709 | 10087 ft | 244 kts | 3° |
| 2026-04-24 22:12 | 67.41597 | 14.71120 | 10494 ft | 267 kts | 343° |
| 2026-04-24 22:13 | 67.43457 | 14.69614 | 10833 ft | 292 kts | 342° |
| 2026-04-24 22:13 | 67.45463 | 14.67982 | 11284 ft | 310 kts | 342° |
| 2026-04-24 22:13 | 67.47545 | 14.66291 | 12044 ft | 316 kts | 342° |
| 2026-04-24 22:13 | 67.49657 | 14.64586 | 12878 ft | 319 kts | 342° |
| 2026-04-24 22:14 | 67.51788 | 14.62875 | 13680 ft | 322 kts | 341° |
| 2026-04-24 22:14 | 67.53943 | 14.61145 | 14449 ft | 326 kts | 341° |
| 2026-04-24 22:14 | 67.56122 | 14.59391 | 15200 ft | 329 kts | 341° |
| 2026-04-24 22:14 | 67.58289 | 14.57648 | 15933 ft | 332 kts | 341° |
| 2026-04-24 22:15 | 67.60509 | 14.55858 | 16664 ft | 335 kts | 341° |
| 2026-04-24 22:15 | 67.62749 | 14.54041 | 17368 ft | 338 kts | 340° |
| 2026-04-24 22:15 | 67.65010 | 14.52203 | 18033 ft | 342 kts | 340° |
| 2026-04-24 22:15 | 67.67296 | 14.50347 | 18693 ft | 346 kts | 340° |
| 2026-04-24 22:16 | 67.69604 | 14.48472 | 19352 ft | 349 kts | 340° |
| 2026-04-24 22:16 | 67.71986 | 14.47013 | 19968 ft | 356 kts | 350° |
| 2026-04-24 22:16 | 67.74481 | 14.46962 | 20565 ft | 364 kts | 3° |
| 2026-04-24 22:16 | 67.76984 | 14.48434 | 21139 ft | 373 kts | 15° |
| 2026-04-24 22:17 | 67.79350 | 14.51434 | 21694 ft | 383 kts | 29° |
| 2026-04-24 22:17 | 67.81525 | 14.55621 | 22255 ft | 389 kts | 33° |
| 2026-04-24 22:17 | 67.83699 | 14.59945 | 22788 ft | 393 kts | 33° |
| 2026-04-24 22:17 | 67.85897 | 14.64326 | 23288 ft | 397 kts | 33° |
| 2026-04-24 22:18 | 67.88114 | 14.68750 | 23776 ft | 401 kts | 33° |
| 2026-04-24 22:18 | 67.90356 | 14.73234 | 24248 ft | 405 kts | 33° |
| 2026-04-24 22:18 | 67.92619 | 14.77771 | 24692 ft | 409 kts | 33° |
| 2026-04-24 22:18 | 67.94902 | 14.82356 | 25133 ft | 413 kts | 33° |
| 2026-04-24 22:19 | 67.97201 | 14.86988 | 25554 ft | 417 kts | 33° |
| 2026-04-24 22:19 | 67.99521 | 14.91688 | 25951 ft | 421 kts | 33° |
| 2026-04-24 22:19 | 68.01859 | 14.96440 | 26348 ft | 424 kts | 33° |
| 2026-04-24 22:19 | 68.04188 | 15.01186 | 26816 ft | 425 kts | 33° |
| 2026-04-24 22:20 | 68.06539 | 15.05980 | 27272 ft | 427 kts | 33° |
| 2026-04-24 22:20 | 68.08909 | 15.10820 | 27664 ft | 430 kts | 33° |
| 2026-04-24 22:20 | 68.11289 | 15.15706 | 28032 ft | 433 kts | 33° |
| 2026-04-24 22:20 | 68.13688 | 15.20642 | 28394 ft | 436 kts | 33° |
| 2026-04-24 22:21 | 68.16101 | 15.25615 | 28734 ft | 439 kts | 33° |
| 2026-04-24 22:21 | 68.18523 | 15.30454 | 29050 ft | 439 kts | 29° |
| 2026-04-24 22:21 | 68.21180 | 15.34461 | 29359 ft | 437 kts | 20° |
| 2026-04-24 22:21 | 68.24021 | 15.37304 | 29659 ft | 435 kts | 11° |
| 2026-04-24 22:22 | 68.26976 | 15.38959 | 29962 ft | 434 kts | 4° |
| 2026-04-24 22:22 | 68.29970 | 15.40197 | 30255 ft | 436 kts | 5° |
| 2026-04-24 22:22 | 68.32980 | 15.41466 | 30543 ft | 439 kts | 5° |
| 2026-04-24 22:22 | 68.36008 | 15.42764 | 30808 ft | 442 kts | 5° |
| 2026-04-24 22:23 | 68.39054 | 15.44083 | 31071 ft | 445 kts | 5° |
| 2026-04-24 22:23 | 68.42124 | 15.45418 | 31333 ft | 448 kts | 5° |
| 2026-04-24 22:23 | 68.45211 | 15.46762 | 31649 ft | 449 kts | 5° |
| 2026-04-24 22:23 | 68.48297 | 15.48103 | 31988 ft | 449 kts | 5° |
| 2026-04-24 22:24 | 68.51383 | 15.49443 | 32331 ft | 450 kts | 5° |
| 2026-04-24 22:24 | 68.54475 | 15.50790 | 32678 ft | 450 kts | 5° |
| 2026-04-24 22:24 | 68.57566 | 15.52139 | 33011 ft | 450 kts | 5° |
| 2026-04-24 22:24 | 68.60661 | 15.53489 | 33325 ft | 451 kts | 5° |
| 2026-04-24 22:25 | 68.63762 | 15.54848 | 33643 ft | 452 kts | 5° |
| 2026-04-24 22:25 | 68.66864 | 15.56218 | 33959 ft | 452 kts | 5° |
| 2026-04-24 22:25 | 68.69974 | 15.57598 | 34272 ft | 452 kts | 5° |
| 2026-04-24 22:25 | 68.73074 | 15.58970 | 34565 ft | 452 kts | 5° |
| 2026-04-24 22:26 | 68.76183 | 15.60350 | 34839 ft | 452 kts | 5° |
| 2026-04-24 22:26 | 68.79288 | 15.61739 | 35115 ft | 452 kts | 5° |
| 2026-04-24 22:26 | 68.82392 | 15.63130 | 35367 ft | 452 kts | 5° |
| 2026-04-24 22:26 | 68.85497 | 15.64517 | 35613 ft | 452 kts | 5° |
| 2026-04-24 22:27 | 68.88597 | 15.65901 | 35837 ft | 452 kts | 5° |
| 2026-04-24 22:27 | 68.91702 | 15.67302 | 36048 ft | 451 kts | 5° |
| 2026-04-24 22:27 | 68.94760 | 15.68683 | 36205 ft | 451 kts | 5° |
| 2026-04-24 22:27 | 68.97857 | 15.70082 | 36392 ft | 451 kts | 5° |
| 2026-04-24 22:28 | 69.00960 | 15.71486 | 36558 ft | 452 kts | 6° |
| 2026-04-24 22:28 | 69.04061 | 15.72894 | 36741 ft | 451 kts | 6° |
| 2026-04-24 22:28 | 69.07154 | 15.74306 | 37056 ft | 448 kts | 6° |
| 2026-04-24 22:28 | 69.10214 | 15.75717 | 37425 ft | 445 kts | 6° |
| 2026-04-24 22:29 | 69.16316 | 15.78538 | 37733 ft | 444 kts | 6° |
| 2026-04-24 22:29 | 69.22417 | 15.81358 | 37733 ft | 443 kts | 6° |
| 2026-04-24 22:30 | 69.28493 | 15.84182 | 37728 ft | 443 kts | 6° |
| 2026-04-24 22:30 | 69.34533 | 15.87006 | 37732 ft | 442 kts | 6° |
| 2026-04-24 22:31 | 69.40603 | 15.89876 | 37734 ft | 443 kts | 6° |
| 2026-04-24 22:31 | 69.46689 | 15.92753 | 37739 ft | 443 kts | 6° |
| 2026-04-24 22:32 | 69.52772 | 15.95632 | 37738 ft | 443 kts | 6° |
| 2026-04-24 22:32 | 69.58863 | 15.98550 | 37744 ft | 444 kts | 6° |
| 2026-04-24 22:33 | 69.64958 | 16.01499 | 37748 ft | 444 kts | 6° |
| 2026-04-24 22:33 | 69.71061 | 16.04450 | 37751 ft | 444 kts | 6° |
| 2026-04-24 22:34 | 69.77150 | 16.07421 | 37750 ft | 444 kts | 6° |
| 2026-04-24 22:34 | 69.82210 | 16.09899 | 37751 ft | 444 kts | 6° |
| 2026-04-24 22:35 | 69.89289 | 16.13396 | 37750 ft | 443 kts | 6° |
| 2026-04-24 22:35 | 69.94384 | 16.15930 | 37749 ft | 443 kts | 6° |
| 2026-04-24 22:36 | 70.00420 | 16.18916 | 37740 ft | 443 kts | 6° |
| 2026-04-24 22:36 | 70.06490 | 16.21945 | 37743 ft | 442 kts | 6° |
| 2026-04-24 22:37 | 70.12559 | 16.25015 | 37736 ft | 442 kts | 6° |
| 2026-04-24 22:37 | 70.18619 | 16.28103 | 37732 ft | 442 kts | 6° |
| 2026-04-24 22:38 | 70.24697 | 16.29529 | 37731 ft | 437 kts | 356° |
| 2026-04-24 22:38 | 70.30789 | 16.29367 | 37733 ft | 438 kts | 356° |
| 2026-04-24 22:39 | 70.36886 | 16.29240 | 37728 ft | 438 kts | 356° |
| 2026-04-24 22:39 | 70.42991 | 16.29104 | 37726 ft | 438 kts | 356° |
| 2026-04-24 22:40 | 70.49093 | 16.28960 | 37727 ft | 439 kts | 356° |
| 2026-04-24 22:40 | 70.55205 | 16.28826 | 37730 ft | 439 kts | 357° |
| 2026-04-24 22:41 | 70.61300 | 16.28704 | 37729 ft | 438 kts | 357° |
| 2026-04-24 22:41 | 70.67398 | 16.28560 | 37726 ft | 438 kts | 357° |
| 2026-04-24 22:42 | 70.73490 | 16.28410 | 37721 ft | 438 kts | 357° |
| 2026-04-24 22:42 | 70.79556 | 16.28280 | 37713 ft | 438 kts | 357° |
| 2026-04-24 22:43 | 70.85654 | 16.28147 | 37712 ft | 438 kts | 357° |
| 2026-04-24 22:43 | 70.91748 | 16.28015 | 37710 ft | 438 kts | 357° |
| 2026-04-24 22:44 | 70.97845 | 16.27866 | 37710 ft | 438 kts | 357° |
| 2026-04-24 22:44 | 71.03931 | 16.27707 | 37712 ft | 438 kts | 357° |
| 2026-04-24 22:45 | 71.09993 | 16.27568 | 37713 ft | 438 kts | 357° |
| 2026-04-24 22:45 | 71.16097 | 16.27460 | 37713 ft | 438 kts | 357° |
| 2026-04-24 22:46 | 71.22187 | 16.27320 | 37725 ft | 438 kts | 357° |
| 2026-04-24 22:46 | 71.28250 | 16.27152 | 37721 ft | 438 kts | 357° |
| 2026-04-24 22:47 | 71.34348 | 16.26994 | 37720 ft | 437 kts | 357° |
| 2026-04-24 22:47 | 71.40335 | 16.26851 | 37712 ft | 426 kts | 357° |
| 2026-04-24 22:48 | 71.46251 | 16.26693 | 37737 ft | 425 kts | 357° |
| 2026-04-24 22:48 | 71.52169 | 16.26561 | 37738 ft | 424 kts | 358° |
| 2026-04-24 22:49 | 71.58039 | 16.26420 | 37738 ft | 424 kts | 358° |
| 2026-04-24 22:49 | 71.63983 | 16.26261 | 37739 ft | 424 kts | 358° |
| 2026-04-24 22:50 | 71.69853 | 16.26125 | 37748 ft | 425 kts | 358° |
| 2026-04-24 22:50 | 71.75772 | 16.25994 | 37752 ft | 425 kts | 358° |
| 2026-04-24 22:51 | 71.81695 | 16.25850 | 37755 ft | 425 kts | 358° |
| 2026-04-24 22:51 | 71.87616 | 16.25684 | 37754 ft | 425 kts | 358° |
| 2026-04-24 22:52 | 71.93491 | 16.25543 | 37755 ft | 425 kts | 358° |
| 2026-04-24 22:52 | 71.99414 | 16.25401 | 37755 ft | 425 kts | 358° |
| 2026-04-24 22:53 | 72.05334 | 16.25211 | 37758 ft | 425 kts | 358° |
| 2026-04-24 22:53 | 72.11257 | 16.25049 | 37758 ft | 426 kts | 358° |
| 2026-04-24 22:54 | 72.17180 | 16.24896 | 37754 ft | 426 kts | 358° |
| 2026-04-24 22:54 | 72.23102 | 16.24752 | 37753 ft | 425 kts | 358° |
| 2026-04-24 22:55 | 72.29024 | 16.24589 | 37751 ft | 425 kts | 358° |
| 2026-04-24 22:55 | 72.34945 | 16.24421 | 37749 ft | 425 kts | 358° |
| 2026-04-24 22:56 | 72.40821 | 16.24263 | 37745 ft | 425 kts | 358° |
| 2026-04-24 22:56 | 72.46727 | 16.24119 | 37748 ft | 425 kts | 358° |
| 2026-04-24 22:57 | 72.52642 | 16.23953 | 37743 ft | 425 kts | 358° |
| 2026-04-24 22:57 | 72.58550 | 16.23786 | 37737 ft | 425 kts | 358° |
| 2026-04-24 22:58 | 72.64459 | 16.23636 | 37736 ft | 425 kts | 358° |
| 2026-04-24 22:58 | 72.70375 | 16.23464 | 37738 ft | 425 kts | 358° |
| 2026-04-24 22:59 | 72.76288 | 16.23288 | 37741 ft | 425 kts | 358° |
| 2026-04-24 23:00 | 72.85168 | 16.23040 | 37741 ft | 425 kts | 358° |
| 2026-04-24 23:00 | 72.91089 | 16.22879 | 37745 ft | 426 kts | 358° |
| 2026-04-24 23:01 | 72.97024 | 16.22697 | 37748 ft | 426 kts | 358° |
| 2026-04-24 23:01 | 73.02915 | 16.22542 | 37753 ft | 426 kts | 358° |
| 2026-04-24 23:02 | 73.08853 | 16.22364 | 37758 ft | 427 kts | 358° |
| 2026-04-24 23:02 | 73.14802 | 16.22186 | 37761 ft | 427 kts | 359° |
| 2026-04-24 23:03 | 73.20750 | 16.22021 | 37763 ft | 427 kts | 359° |
| 2026-04-24 23:03 | 73.26698 | 16.21854 | 37765 ft | 428 kts | 359° |
| 2026-04-24 23:04 | 73.32653 | 16.21672 | 37769 ft | 428 kts | 359° |
| 2026-04-24 23:04 | 73.38604 | 16.21443 | 37773 ft | 428 kts | 359° |
| 2026-04-24 23:05 | 73.44563 | 16.21256 | 37773 ft | 428 kts | 359° |
| 2026-04-24 23:05 | 73.50528 | 16.21116 | 37778 ft | 428 kts | 359° |
| 2026-04-24 23:06 | 73.56491 | 16.20945 | 37781 ft | 428 kts | 359° |
| 2026-04-24 23:06 | 73.62406 | 16.20749 | 37781 ft | 428 kts | 359° |
| 2026-04-24 23:07 | 73.68366 | 16.20550 | 37777 ft | 429 kts | 359° |
| 2026-04-24 23:07 | 73.74332 | 16.20375 | 37783 ft | 429 kts | 359° |
| 2026-04-24 23:08 | 73.80303 | 16.20190 | 37786 ft | 429 kts | 359° |
| 2026-04-24 23:08 | 73.86273 | 16.19994 | 37790 ft | 429 kts | 359° |
| 2026-04-24 23:09 | 73.92244 | 16.19776 | 37793 ft | 429 kts | 359° |
| 2026-04-24 23:09 | 73.98214 | 16.19587 | 37799 ft | 429 kts | 359° |
| 2026-04-24 23:10 | 74.04188 | 16.19404 | 37802 ft | 429 kts | 359° |
| 2026-04-24 23:10 | 74.10164 | 16.19195 | 37806 ft | 429 kts | 359° |
| 2026-04-24 23:11 | 74.16131 | 16.19006 | 37812 ft | 429 kts | 359° |
| 2026-04-24 23:11 | 74.22067 | 16.18824 | 37815 ft | 429 kts | 359° |
| 2026-04-24 23:12 | 74.28043 | 16.18606 | 37817 ft | 429 kts | 359° |
| 2026-04-24 23:12 | 74.34024 | 16.18388 | 37825 ft | 430 kts | 359° |
| 2026-04-24 23:13 | 74.40005 | 16.18201 | 37829 ft | 430 kts | 359° |
| 2026-04-24 23:13 | 74.45988 | 16.18015 | 37828 ft | 430 kts | 359° |
| 2026-04-24 23:14 | 74.51983 | 16.17811 | 37832 ft | 430 kts | 359° |
| 2026-04-24 23:14 | 74.57970 | 16.17578 | 37835 ft | 430 kts | 359° |
| 2026-04-24 23:15 | 74.63924 | 16.17366 | 37839 ft | 431 kts | 359° |
| 2026-04-24 23:15 | 74.69919 | 16.17162 | 37846 ft | 431 kts | 359° |
| 2026-04-24 23:16 | 74.75913 | 16.16922 | 37850 ft | 431 kts | 359° |
| 2026-04-24 23:16 | 74.81909 | 16.16708 | 37852 ft | 431 kts | 359° |
| 2026-04-24 23:17 | 74.87918 | 16.16493 | 37858 ft | 431 kts | 359° |
| 2026-04-24 23:17 | 74.93921 | 16.16318 | 37858 ft | 432 kts | 359° |
| 2026-04-24 23:18 | 74.99928 | 16.16110 | 37860 ft | 432 kts | 359° |
| 2026-04-24 23:18 | 75.05933 | 16.15860 | 37867 ft | 431 kts | 359° |
| 2026-04-24 23:19 | 75.11940 | 16.15625 | 37879 ft | 431 kts | 359° |
| 2026-04-24 23:19 | 75.17918 | 16.15408 | 37888 ft | 429 kts | 359° |
| 2026-04-24 23:20 | 75.23882 | 16.15177 | 37885 ft | 428 kts | 359° |
| 2026-04-24 23:20 | 75.29830 | 16.14944 | 37889 ft | 427 kts | 359° |
| 2026-04-24 23:21 | 75.35709 | 16.14720 | 37892 ft | 424 kts | 359° |
| 2026-04-24 23:21 | 75.41620 | 16.14488 | 37897 ft | 423 kts | 359° |
| 2026-04-24 23:22 | 75.47506 | 16.14255 | 37891 ft | 422 kts | 359° |
| 2026-04-24 23:22 | 75.53379 | 16.14011 | 37891 ft | 422 kts | 359° |
| 2026-04-24 23:23 | 75.59242 | 16.13783 | 37891 ft | 421 kts | 359° |
| 2026-04-24 23:23 | 75.65097 | 16.13553 | 37887 ft | 421 kts | 359° |
| 2026-04-24 23:24 | 75.70955 | 16.13321 | 37892 ft | 421 kts | 359° |
| 2026-04-24 23:24 | 75.76850 | 16.13059 | 37897 ft | 432 kts | 359° |
| 2026-04-24 23:25 | 75.82939 | 16.12823 | 37901 ft | 442 kts | 360° |
| 2026-04-24 23:25 | 75.89121 | 16.12598 | 37906 ft | 445 kts | 359° |
| 2026-04-24 23:26 | 75.94311 | 16.12362 | 37906 ft | 445 kts | 359° |
| 2026-04-24 23:26 | 76.00482 | 16.12085 | 37906 ft | 446 kts | 359° |
| 2026-04-24 23:27 | 76.06683 | 16.11826 | 37906 ft | 445 kts | 359° |
| 2026-04-24 23:27 | 76.12885 | 16.11566 | 37910 ft | 445 kts | 359° |
| 2026-04-24 23:28 | 76.19087 | 16.11332 | 37914 ft | 446 kts | 360° |
| 2026-04-24 23:28 | 76.25298 | 16.11070 | 37917 ft | 446 kts | 359° |
| 2026-04-24 23:29 | 76.31504 | 16.10773 | 37922 ft | 446 kts | 359° |
| 2026-04-24 23:29 | 76.37685 | 16.10497 | 37931 ft | 447 kts | 359° |
| 2026-04-24 23:30 | 76.43907 | 16.10196 | 37933 ft | 447 kts | 359° |
| 2026-04-24 23:30 | 76.50132 | 16.09929 | 37941 ft | 447 kts | 359° |
| 2026-04-24 23:31 | 76.56356 | 16.09629 | 37942 ft | 447 kts | 359° |
| 2026-04-24 23:31 | 76.59464 | 16.09490 | 37723 ft | 448 kts | 360° |
| 2026-04-24 23:31 | 76.62576 | 16.09350 | 37343 ft | 446 kts | 360° |
| 2026-04-24 23:31 | 76.65671 | 16.09211 | 36970 ft | 444 kts | 360° |
| 2026-04-24 23:32 | 76.68762 | 16.09068 | 36598 ft | 444 kts | 360° |
| 2026-04-24 23:32 | 76.71844 | 16.08919 | 36215 ft | 443 kts | 360° |
| 2026-04-24 23:32 | 76.74891 | 16.08762 | 35769 ft | 444 kts | 360° |
| 2026-04-24 23:32 | 76.77991 | 16.08618 | 35324 ft | 447 kts | 360° |
| 2026-04-24 23:33 | 76.81110 | 16.08476 | 34872 ft | 449 kts | 0° |
| 2026-04-24 23:33 | 76.84238 | 16.08324 | 34422 ft | 450 kts | 0° |
| 2026-04-24 23:33 | 76.87362 | 16.08175 | 33971 ft | 448 kts | 0° |
| 2026-04-24 23:33 | 76.90466 | 16.08035 | 33528 ft | 444 kts | 0° |
| 2026-04-24 23:34 | 76.93544 | 16.07891 | 33071 ft | 440 kts | 0° |
| 2026-04-24 23:34 | 76.96589 | 16.07735 | 32621 ft | 435 kts | 0° |
| 2026-04-24 23:34 | 76.99600 | 16.07587 | 32171 ft | 430 kts | 0° |
| 2026-04-24 23:34 | 77.02579 | 16.07437 | 31720 ft | 426 kts | 0° |
| 2026-04-24 23:35 | 77.05526 | 16.07288 | 31266 ft | 421 kts | 0° |
| 2026-04-24 23:35 | 77.08442 | 16.07140 | 30818 ft | 417 kts | 0° |
| 2026-04-24 23:35 | 77.11334 | 16.06992 | 30367 ft | 413 kts | 0° |
| 2026-04-24 23:35 | 77.14192 | 16.06858 | 29919 ft | 409 kts | 1° |
| 2026-04-24 23:36 | 77.16984 | 16.06719 | 29470 ft | 405 kts | 1° |
| 2026-04-24 23:36 | 77.19790 | 16.06573 | 29025 ft | 401 kts | 1° |
| 2026-04-24 23:36 | 77.22571 | 16.06434 | 28575 ft | 397 kts | 1° |
| 2026-04-24 23:36 | 77.25319 | 16.06317 | 28126 ft | 394 kts | 1° |
| 2026-04-24 23:37 | 77.28053 | 16.06200 | 27675 ft | 391 kts | 1° |
| 2026-04-24 23:37 | 77.30761 | 16.06066 | 27232 ft | 388 kts | 1° |
| 2026-04-24 23:37 | 77.36114 | 16.05763 | 26317 ft | 382 kts | 1° |
| 2026-04-24 23:38 | 77.38756 | 16.05605 | 25868 ft | 379 kts | 1° |
| 2026-04-24 23:38 | 77.41387 | 16.05460 | 25418 ft | 376 kts | 1° |
| 2026-04-24 23:38 | 77.43997 | 16.05323 | 24965 ft | 374 kts | 1° |
| 2026-04-24 23:38 | 77.46592 | 16.05185 | 24516 ft | 372 kts | 1° |
| 2026-04-24 23:39 | 77.49167 | 16.05047 | 24064 ft | 369 kts | 1° |
| 2026-04-24 23:39 | 77.51724 | 16.04928 | 23613 ft | 366 kts | 1° |
| 2026-04-24 23:39 | 77.54256 | 16.04815 | 23160 ft | 363 kts | 1° |
| 2026-04-24 23:39 | 77.56775 | 16.04692 | 22711 ft | 360 kts | 1° |
| 2026-04-24 23:40 | 77.59271 | 16.04554 | 22261 ft | 357 kts | 1° |
| 2026-04-24 23:40 | 77.61747 | 16.04411 | 21811 ft | 355 kts | 1° |
| 2026-04-24 23:40 | 77.64206 | 16.04259 | 21360 ft | 352 kts | 1° |
| 2026-04-24 23:40 | 77.66647 | 16.04100 | 20908 ft | 350 kts | 1° |
| 2026-04-24 23:41 | 77.69072 | 16.03958 | 20457 ft | 347 kts | 1° |
| 2026-04-24 23:41 | 77.71473 | 16.03824 | 20006 ft | 344 kts | 1° |
| 2026-04-24 23:41 | 77.73861 | 16.03708 | 19545 ft | 342 kts | 1° |
| 2026-04-24 23:41 | 77.76230 | 16.03605 | 19095 ft | 340 kts | 1° |
| 2026-04-24 23:42 | 77.78587 | 16.03489 | 18643 ft | 337 kts | 1° |
| 2026-04-24 23:42 | 77.80925 | 16.03369 | 18192 ft | 335 kts | 1° |
| 2026-04-24 23:42 | 77.83216 | 16.03236 | 17747 ft | 333 kts | 1° |
| 2026-04-24 23:42 | 77.85524 | 16.03083 | 17296 ft | 331 kts | 1° |
| 2026-04-24 23:43 | 77.87819 | 16.02939 | 16844 ft | 329 kts | 1° |
| 2026-04-24 23:43 | 77.90103 | 16.02812 | 16395 ft | 327 kts | 1° |
| 2026-04-24 23:43 | 77.92373 | 16.02694 | 15943 ft | 326 kts | 1° |
| 2026-04-24 23:43 | 77.94642 | 16.02564 | 15491 ft | 326 kts | 1° |
| 2026-04-24 23:44 | 77.96904 | 16.02432 | 15036 ft | 323 kts | 1° |
| 2026-04-24 23:44 | 77.99128 | 16.02299 | 14582 ft | 316 kts | 1° |
| 2026-04-24 23:44 | 78.01309 | 16.02168 | 14129 ft | 310 kts | 1° |
| 2026-04-24 23:44 | 78.03446 | 16.02053 | 13679 ft | 305 kts | 1° |
| 2026-04-24 23:45 | 78.05555 | 16.01943 | 13225 ft | 301 kts | 1° |
| 2026-04-24 23:45 | 78.07637 | 16.01815 | 12774 ft | 297 kts | 1° |
| 2026-04-24 23:45 | 78.09682 | 16.01687 | 12397 ft | 290 kts | 1° |
| 2026-04-24 23:45 | 78.11674 | 16.01575 | 12074 ft | 282 kts | 1° |
| 2026-04-24 23:46 | 78.13611 | 16.01466 | 11746 ft | 275 kts | 1° |
| 2026-04-24 23:46 | 78.15480 | 16.00209 | 11427 ft | 270 kts | 346° |
| 2026-04-24 23:46 | 78.17195 | 15.96631 | 11097 ft | 267 kts | 332° |
| 2026-04-24 23:46 | 78.18650 | 15.91085 | 10771 ft | 266 kts | 317° |
| 2026-04-24 23:47 | 78.19766 | 15.83958 | 10448 ft | 264 kts | 304° |
| 2026-04-24 23:47 | 78.20670 | 15.76386 | 10148 ft | 258 kts | 304° |
| 2026-04-24 23:47 | 78.21561 | 15.68885 | 9852 ft | 253 kts | 304° |
| 2026-04-24 23:47 | 78.22438 | 15.61462 | 9550 ft | 251 kts | 304° |
| 2026-04-24 23:48 | 78.23313 | 15.54086 | 9252 ft | 250 kts | 305° |
| 2026-04-24 23:48 | 78.24185 | 15.46720 | 8956 ft | 250 kts | 305° |
| 2026-04-24 23:48 | 78.25081 | 15.39438 | 8648 ft | 247 kts | 311° |
| 2026-04-24 23:48 | 78.26129 | 15.32849 | 8349 ft | 244 kts | 313° |
| 2026-04-24 23:49 | 78.27176 | 15.26280 | 8044 ft | 243 kts | 313° |
| 2026-04-24 23:49 | 78.28213 | 15.19735 | 7746 ft | 242 kts | 313° |
| 2026-04-24 23:49 | 78.29243 | 15.13236 | 7451 ft | 240 kts | 313° |
| 2026-04-24 23:49 | 78.30261 | 15.06764 | 7145 ft | 238 kts | 313° |
| 2026-04-24 23:50 | 78.31266 | 15.00313 | 6854 ft | 236 kts | 313° |
| 2026-04-24 23:50 | 78.32258 | 14.93892 | 6593 ft | 233 kts | 313° |
| 2026-04-24 23:50 | 78.33229 | 14.87598 | 6366 ft | 228 kts | 313° |
| 2026-04-24 23:50 | 78.34183 | 14.81420 | 6140 ft | 224 kts | 313° |
| 2026-04-24 23:51 | 78.35111 | 14.75419 | 5907 ft | 221 kts | 313° |
| 2026-04-24 23:51 | 78.36009 | 14.69388 | 5647 ft | 217 kts | 306° |
| 2026-04-24 23:51 | 78.36490 | 14.62302 | 5404 ft | 219 kts | 280° |
| 2026-04-24 23:51 | 78.36315 | 14.54838 | 5186 ft | 220 kts | 253° |
| 2026-04-24 23:52 | 78.35512 | 14.48533 | 4942 ft | 217 kts | 225° |
| 2026-04-24 23:52 | 78.34295 | 14.44356 | 4683 ft | 211 kts | 210° |
| 2026-04-24 23:52 | 78.33077 | 14.40592 | 4524 ft | 202 kts | 211° |
| 2026-04-24 23:52 | 78.31879 | 14.37328 | 4390 ft | 192 kts | 194° |
| 2026-04-24 23:53 | 78.30634 | 14.37819 | 4230 ft | 176 kts | 144° |
| 2026-04-24 23:53 | 78.30039 | 14.42360 | 4082 ft | 154 kts | 91° |
| 2026-04-24 23:53 | 78.29972 | 14.47542 | 3892 ft | 153 kts | 99° |
| 2026-04-24 23:53 | 78.29674 | 14.52484 | 3720 ft | 150 kts | 99° |
| 2026-04-24 23:54 | 78.29410 | 14.57430 | 3525 ft | 149 kts | 99° |
| 2026-04-24 23:54 | 78.29152 | 14.62357 | 3327 ft | 148 kts | 99° |
| 2026-04-24 23:54 | 78.28895 | 14.67250 | 3133 ft | 147 kts | 99° |
| 2026-04-24 23:54 | 78.28638 | 14.72124 | 2946 ft | 146 kts | 100° |
| 2026-04-24 23:55 | 78.28384 | 14.76931 | 2753 ft | 143 kts | 100° |
| 2026-04-24 23:55 | 78.28141 | 14.81507 | 2560 ft | 133 kts | 99° |
| 2026-04-24 23:55 | 78.27912 | 14.85818 | 2395 ft | 128 kts | 99° |
| 2026-04-24 23:55 | 78.27690 | 14.89985 | 2225 ft | 125 kts | 98° |
| 2026-04-24 23:56 | 78.27472 | 14.94081 | 2061 ft | 123 kts | 98° |
| 2026-04-24 23:56 | 78.27255 | 14.98135 | 1895 ft | 122 kts | 98° |
| 2026-04-24 23:56 | 78.27038 | 15.02161 | 1736 ft | 121 kts | 99° |
| 2026-04-24 23:56 | 78.26823 | 15.06149 | 1578 ft | 119 kts | 99° |
| 2026-04-24 23:57 | 78.26611 | 15.10088 | 1418 ft | 119 kts | 98° |
| 2026-04-24 23:57 | 78.26402 | 15.13938 | 1269 ft | 118 kts | 98° |
| 2026-04-24 23:57 | 78.26192 | 15.17799 | 1106 ft | 116 kts | 98° |
| 2026-04-24 23:57 | 78.25984 | 15.21623 | 951 ft | 116 kts | 98° |
| 2026-04-24 23:58 | 78.25776 | 15.25438 | 798 ft | 116 kts | 99° |
| 2026-04-24 23:58 | 78.25572 | 15.29252 | 643 ft | 116 kts | 98° |
| 2026-04-24 23:58 | 78.25361 | 15.33076 | 486 ft | 116 kts | 99° |
| 2026-04-24 23:58 | 78.25151 | 15.36903 | 336 ft | 116 kts | 100° |
| 2026-04-24 23:59 | 78.24939 | 15.40753 | 170 ft | 117 kts | 100° |
| 2026-04-24 23:59 | 78.24735 | 15.44407 | 91 ft | 102 kts | 104° |
| 2026-04-24 23:59 | 78.24588 | 15.47021 | 89 ft | 55 kts | 106° |
| 2026-04-24 23:59 | 78.24518 | 15.48214 | 91 ft | 30 kts | 107° |
| 2026-04-25 00:00 | 78.24468 | 15.49191 | 89 ft | 19 kts | 103° |
| 2026-04-25 00:00 | 78.24529 | 15.49453 | 89 ft | 6 kts | 4° |
| 2026-04-25 00:00 | 78.24541 | 15.49459 | 88 ft | 5 kts | 6° |
| 2026-04-25 00:00 | 78.24563 | 15.49474 | 92 ft | 6 kts | 343° |
| 2026-04-25 00:01 | 78.24603 | 15.49179 | 88 ft | 15 kts | 294° |
| 2026-04-25 00:01 | 78.24657 | 15.48714 | 89 ft | 13 kts | 304° |
| 2026-04-25 00:01 | 78.24654 | 15.48527 | 88 ft | 5 kts | 154° |
| 2026-04-25 00:01 | 78.24649 | 15.48577 | 88 ft | 0 kts | 113° |